TKJ616 UGTB-LTAC
Flight info
| Callsign | TKJ616 |
|---|---|
| Flight time | 1h 51m |
| Altitude | 38000 |
| Route | ZAGOT DCT NOLGA UN61 TBN UW71 ILHAN |
| Aircraft | A320/M-SDE2E3FGHIRWXY/LB1 |
Departure
| Time | 2026-04-23 18:22 |
|---|---|
| Airport | Tbilisi International Airport (UGTB) |
Arrival
| Time | 2026-04-23 20:13 |
|---|---|
| Airport | Esenboğa International Airport (LTAC) |
| Time | Latitude | Longitude | Altitude | Speed | Heading |
|---|---|---|---|---|---|
| 2026-04-23 17:56 | 41.67000 | 44.96164 | 1574 ft | 0 kts | 43° |
| 2026-04-23 18:13 | 41.66993 | 44.96155 | 1574 ft | 2 kts | 45° |
| 2026-04-23 18:13 | 41.66983 | 44.96142 | 1573 ft | 2 kts | 44° |
| 2026-04-23 18:13 | 41.66972 | 44.96128 | 1573 ft | 2 kts | 44° |
| 2026-04-23 18:13 | 41.66962 | 44.96115 | 1573 ft | 2 kts | 43° |
| 2026-04-23 18:14 | 41.66953 | 44.96101 | 1572 ft | 2 kts | 86° |
| 2026-04-23 18:14 | 41.66956 | 44.96084 | 1573 ft | 0 kts | 127° |
| 2026-04-23 18:14 | 41.66960 | 44.96078 | 1573 ft | 1 kts | 136° |
| 2026-04-23 18:14 | 41.66962 | 44.96076 | 1573 ft | 0 kts | 133° |
| 2026-04-23 18:17 | 41.66961 | 44.96077 | 1573 ft | 1 kts | 132° |
| 2026-04-23 18:17 | 41.66930 | 44.96122 | 1571 ft | 11 kts | 132° |
| 2026-04-23 18:17 | 41.66866 | 44.96213 | 1570 ft | 14 kts | 132° |
| 2026-04-23 18:17 | 41.66803 | 44.96302 | 1572 ft | 11 kts | 134° |
| 2026-04-23 18:18 | 41.66753 | 44.96372 | 1575 ft | 9 kts | 133° |
| 2026-04-23 18:18 | 41.66711 | 44.96421 | 1575 ft | 7 kts | 155° |
| 2026-04-23 18:18 | 41.66647 | 44.96417 | 1572 ft | 12 kts | 195° |
| 2026-04-23 18:18 | 41.66553 | 44.96386 | 1562 ft | 14 kts | 194° |
| 2026-04-23 18:19 | 41.66452 | 44.96352 | 1552 ft | 13 kts | 195° |
| 2026-04-23 18:19 | 41.66364 | 44.96323 | 1545 ft | 12 kts | 195° |
| 2026-04-23 18:19 | 41.66272 | 44.96296 | 1540 ft | 13 kts | 189° |
| 2026-04-23 18:19 | 41.66188 | 44.96307 | 1537 ft | 12 kts | 159° |
| 2026-04-23 18:20 | 41.66112 | 44.96379 | 1535 ft | 14 kts | 138° |
| 2026-04-23 18:20 | 41.66039 | 44.96471 | 1532 ft | 15 kts | 133° |
| 2026-04-23 18:20 | 41.65978 | 44.96551 | 1528 ft | 12 kts | 136° |
| 2026-04-23 18:20 | 41.65907 | 44.96605 | 1524 ft | 11 kts | 181° |
| 2026-04-23 18:21 | 41.65849 | 44.96536 | 1522 ft | 9 kts | 262° |
| 2026-04-23 18:21 | 41.65857 | 44.96460 | 1525 ft | 5 kts | 297° |
| 2026-04-23 18:21 | 41.65870 | 44.96435 | 1527 ft | 2 kts | 313° |
| 2026-04-23 18:21 | 41.65953 | 44.96329 | 1530 ft | 45 kts | 315° |
| 2026-04-23 18:22 | 41.66357 | 44.95817 | 1537 ft | 110 kts | 316° |
| 2026-04-23 18:22 | 41.67043 | 44.94949 | 1551 ft | 161 kts | 315° |
| 2026-04-23 18:22 | 41.67883 | 44.93879 | 1976 ft | 170 kts | 316° |
| 2026-04-23 18:22 | 41.68757 | 44.92787 | 2582 ft | 174 kts | 317° |
| 2026-04-23 18:23 | 41.69646 | 44.91691 | 3217 ft | 177 kts | 317° |
| 2026-04-23 18:23 | 41.71573 | 44.89283 | 4155 ft | 205 kts | 315° |
| 2026-04-23 18:24 | 41.73813 | 44.86459 | 4963 ft | 243 kts | 314° |
| 2026-04-23 18:24 | 41.75087 | 44.84846 | 5414 ft | 263 kts | 314° |
| 2026-04-23 18:24 | 41.76465 | 44.83107 | 5991 ft | 277 kts | 314° |
| 2026-04-23 18:25 | 41.78918 | 44.79146 | 7549 ft | 278 kts | 281° |
| 2026-04-23 18:25 | 41.79013 | 44.76630 | 8466 ft | 270 kts | 262° |
| 2026-04-23 18:25 | 41.78901 | 44.74140 | 9310 ft | 272 kts | 263° |
| 2026-04-23 18:25 | 41.78838 | 44.71630 | 10163 ft | 274 kts | 264° |
| 2026-04-23 18:26 | 41.78794 | 44.69042 | 10784 ft | 283 kts | 264° |
| 2026-04-23 18:26 | 41.78762 | 44.66360 | 11166 ft | 300 kts | 265° |
| 2026-04-23 18:26 | 41.78740 | 44.63511 | 11735 ft | 310 kts | 265° |
| 2026-04-23 18:26 | 41.78727 | 44.60635 | 12557 ft | 311 kts | 265° |
| 2026-04-23 18:27 | 41.78717 | 44.57718 | 13377 ft | 312 kts | 266° |
| 2026-04-23 18:27 | 41.78708 | 44.54860 | 14198 ft | 310 kts | 266° |
| 2026-04-23 18:27 | 41.78698 | 44.51974 | 14965 ft | 311 kts | 266° |
| 2026-04-23 18:27 | 41.78685 | 44.49103 | 15652 ft | 313 kts | 266° |
| 2026-04-23 18:28 | 41.78673 | 44.46183 | 16314 ft | 316 kts | 266° |
| 2026-04-23 18:28 | 41.78659 | 44.43248 | 16931 ft | 319 kts | 267° |
| 2026-04-23 18:28 | 41.78646 | 44.40270 | 17571 ft | 321 kts | 267° |
| 2026-04-23 18:28 | 41.78632 | 44.37267 | 18225 ft | 323 kts | 267° |
| 2026-04-23 18:29 | 41.78618 | 44.34261 | 18872 ft | 324 kts | 267° |
| 2026-04-23 18:29 | 41.78603 | 44.31223 | 19470 ft | 327 kts | 266° |
| 2026-04-23 18:29 | 41.78586 | 44.28183 | 20044 ft | 330 kts | 267° |
| 2026-04-23 18:29 | 41.78567 | 44.25093 | 20621 ft | 333 kts | 266° |
| 2026-04-23 18:30 | 41.78551 | 44.21983 | 21183 ft | 335 kts | 267° |
| 2026-04-23 18:30 | 41.78530 | 44.18856 | 21727 ft | 338 kts | 267° |
| 2026-04-23 18:30 | 41.78389 | 44.15718 | 22288 ft | 338 kts | 261° |
| 2026-04-23 18:30 | 41.77957 | 44.12656 | 22761 ft | 340 kts | 255° |
| 2026-04-23 18:31 | 41.77232 | 44.09617 | 23250 ft | 343 kts | 249° |
| 2026-04-23 18:31 | 41.76357 | 44.06657 | 23780 ft | 345 kts | 248° |
| 2026-04-23 18:31 | 41.75465 | 44.03691 | 24310 ft | 347 kts | 248° |
| 2026-04-23 18:31 | 41.74563 | 44.00702 | 24793 ft | 349 kts | 248° |
| 2026-04-23 18:32 | 41.73641 | 43.97655 | 25272 ft | 352 kts | 248° |
| 2026-04-23 18:32 | 41.72713 | 43.94605 | 25452 ft | 361 kts | 248° |
| 2026-04-23 18:32 | 41.71751 | 43.91442 | 25659 ft | 369 kts | 249° |
| 2026-04-23 18:32 | 41.70784 | 43.88263 | 25976 ft | 373 kts | 249° |
| 2026-04-23 18:33 | 41.69807 | 43.85044 | 26385 ft | 375 kts | 249° |
| 2026-04-23 18:33 | 41.68817 | 43.81806 | 26787 ft | 377 kts | 249° |
| 2026-04-23 18:33 | 41.67823 | 43.78556 | 27155 ft | 379 kts | 249° |
| 2026-04-23 18:33 | 41.66825 | 43.75285 | 27518 ft | 381 kts | 249° |
| 2026-04-23 18:34 | 41.65803 | 43.71948 | 27887 ft | 383 kts | 249° |
| 2026-04-23 18:34 | 41.64790 | 43.68652 | 28342 ft | 382 kts | 249° |
| 2026-04-23 18:34 | 41.63794 | 43.65402 | 28876 ft | 379 kts | 249° |
| 2026-04-23 18:34 | 41.62797 | 43.62161 | 29365 ft | 377 kts | 249° |
| 2026-04-23 18:35 | 41.61800 | 43.58923 | 29833 ft | 375 kts | 249° |
| 2026-04-23 18:35 | 41.60810 | 43.55708 | 30266 ft | 374 kts | 249° |
| 2026-04-23 18:35 | 41.59817 | 43.52491 | 30730 ft | 373 kts | 249° |
| 2026-04-23 18:35 | 41.58835 | 43.49311 | 31175 ft | 370 kts | 250° |
| 2026-04-23 18:36 | 41.57854 | 43.46138 | 31592 ft | 368 kts | 249° |
| 2026-04-23 18:36 | 41.56893 | 43.43026 | 32005 ft | 365 kts | 249° |
| 2026-04-23 18:36 | 41.55924 | 43.39891 | 32404 ft | 363 kts | 249° |
| 2026-04-23 18:36 | 41.54961 | 43.36794 | 32760 ft | 361 kts | 249° |
| 2026-04-23 18:37 | 41.54007 | 43.33721 | 33096 ft | 360 kts | 249° |
| 2026-04-23 18:37 | 41.53050 | 43.30629 | 33404 ft | 360 kts | 248° |
| 2026-04-23 18:37 | 41.52092 | 43.27543 | 33644 ft | 361 kts | 249° |
| 2026-04-23 18:37 | 41.51128 | 43.24439 | 33913 ft | 361 kts | 248° |
| 2026-04-23 18:38 | 41.50156 | 43.21315 | 34185 ft | 361 kts | 248° |
| 2026-04-23 18:38 | 41.49194 | 43.18237 | 34407 ft | 361 kts | 248° |
| 2026-04-23 18:38 | 41.48234 | 43.15169 | 34678 ft | 360 kts | 248° |
| 2026-04-23 18:38 | 41.47277 | 43.12119 | 34912 ft | 360 kts | 248° |
| 2026-04-23 18:39 | 41.46307 | 43.09031 | 35099 ft | 359 kts | 248° |
| 2026-04-23 18:39 | 41.45341 | 43.05953 | 35295 ft | 359 kts | 248° |
| 2026-04-23 18:39 | 41.44435 | 43.02908 | 35497 ft | 358 kts | 250° |
| 2026-04-23 18:39 | 41.43634 | 42.99778 | 35713 ft | 356 kts | 254° |
| 2026-04-23 18:40 | 41.43103 | 42.96556 | 35908 ft | 356 kts | 260° |
| 2026-04-23 18:40 | 41.42876 | 42.93279 | 36095 ft | 356 kts | 265° |
| 2026-04-23 18:40 | 41.42789 | 42.89997 | 36256 ft | 356 kts | 265° |
| 2026-04-23 18:40 | 41.42710 | 42.86693 | 36389 ft | 356 kts | 266° |
| 2026-04-23 18:41 | 41.42633 | 42.83387 | 36530 ft | 356 kts | 265° |
| 2026-04-23 18:41 | 41.42554 | 42.80096 | 36631 ft | 356 kts | 266° |
| 2026-04-23 18:41 | 41.42474 | 42.76830 | 36732 ft | 357 kts | 265° |
| 2026-04-23 18:41 | 41.42397 | 42.73493 | 36843 ft | 358 kts | 265° |
| 2026-04-23 18:42 | 41.42315 | 42.70206 | 36961 ft | 359 kts | 266° |
| 2026-04-23 18:42 | 41.42150 | 42.63547 | 37128 ft | 362 kts | 266° |
| 2026-04-23 18:43 | 41.41981 | 42.56834 | 37327 ft | 363 kts | 266° |
| 2026-04-23 18:43 | 41.41806 | 42.50102 | 37472 ft | 365 kts | 266° |
| 2026-04-23 18:44 | 41.41629 | 42.43327 | 37605 ft | 368 kts | 266° |
| 2026-04-23 18:44 | 41.41450 | 42.36565 | 37765 ft | 368 kts | 266° |
| 2026-04-23 18:45 | 41.41260 | 42.29721 | 37867 ft | 371 kts | 265° |
| 2026-04-23 18:45 | 41.41071 | 42.22890 | 37868 ft | 370 kts | 266° |
| 2026-04-23 18:46 | 41.40873 | 42.16038 | 37887 ft | 371 kts | 266° |
| 2026-04-23 18:46 | 41.40671 | 42.09192 | 37890 ft | 371 kts | 266° |
| 2026-04-23 18:47 | 41.40467 | 42.02334 | 37902 ft | 372 kts | 265° |
| 2026-04-23 18:47 | 41.40256 | 41.95436 | 37930 ft | 373 kts | 265° |
| 2026-04-23 18:48 | 41.40041 | 41.88561 | 37934 ft | 372 kts | 265° |
| 2026-04-23 18:48 | 41.39822 | 41.81717 | 37958 ft | 373 kts | 265° |
| 2026-04-23 18:49 | 41.39600 | 41.74856 | 37961 ft | 372 kts | 265° |
| 2026-04-23 18:49 | 41.39374 | 41.67977 | 37971 ft | 372 kts | 265° |
| 2026-04-23 18:50 | 41.39185 | 41.62289 | 37981 ft | 371 kts | 265° |
| 2026-04-23 18:50 | 41.38912 | 41.54314 | 37954 ft | 371 kts | 265° |
| 2026-04-23 18:51 | 41.38676 | 41.47496 | 37974 ft | 369 kts | 265° |
| 2026-04-23 18:51 | 41.38435 | 41.40677 | 37969 ft | 370 kts | 265° |
| 2026-04-23 18:52 | 41.38189 | 41.33842 | 37991 ft | 369 kts | 265° |
| 2026-04-23 18:52 | 41.37942 | 41.27050 | 38009 ft | 368 kts | 265° |
| 2026-04-23 18:53 | 41.37694 | 41.20296 | 38037 ft | 369 kts | 265° |
| 2026-04-23 18:53 | 41.37440 | 41.13487 | 38009 ft | 367 kts | 265° |
| 2026-04-23 18:54 | 41.37181 | 41.06708 | 38037 ft | 368 kts | 265° |
| 2026-04-23 18:54 | 41.36921 | 41.00032 | 38009 ft | 367 kts | 265° |
| 2026-04-23 18:55 | 41.36649 | 40.93167 | 38021 ft | 367 kts | 265° |
| 2026-04-23 18:55 | 41.36377 | 40.86390 | 38036 ft | 367 kts | 265° |
| 2026-04-23 18:56 | 41.36151 | 40.80785 | 38003 ft | 368 kts | 265° |
| 2026-04-23 18:56 | 41.35823 | 40.72839 | 38033 ft | 368 kts | 265° |
| 2026-04-23 18:57 | 41.35541 | 40.66105 | 38015 ft | 367 kts | 265° |
| 2026-04-23 18:57 | 41.35255 | 40.59315 | 38017 ft | 367 kts | 265° |
| 2026-04-23 18:58 | 41.34965 | 40.52552 | 38011 ft | 368 kts | 265° |
| 2026-04-23 18:58 | 41.34669 | 40.45764 | 38029 ft | 367 kts | 264° |
| 2026-04-23 18:59 | 41.34372 | 40.39022 | 38039 ft | 368 kts | 265° |
| 2026-04-23 18:59 | 41.34069 | 40.32258 | 38019 ft | 368 kts | 264° |
| 2026-04-23 19:00 | 41.33761 | 40.25493 | 38032 ft | 368 kts | 264° |
| 2026-04-23 19:00 | 41.33454 | 40.18694 | 38036 ft | 368 kts | 264° |
| 2026-04-23 19:01 | 41.33136 | 40.11900 | 38038 ft | 368 kts | 264° |
| 2026-04-23 19:01 | 41.32818 | 40.05110 | 38035 ft | 369 kts | 264° |
| 2026-04-23 19:02 | 41.32495 | 39.98297 | 38043 ft | 369 kts | 264° |
| 2026-04-23 19:02 | 41.32166 | 39.91516 | 38048 ft | 369 kts | 264° |
| 2026-04-23 19:03 | 41.31836 | 39.84764 | 38050 ft | 368 kts | 264° |
| 2026-04-23 19:03 | 41.31500 | 39.77980 | 38045 ft | 369 kts | 264° |
| 2026-04-23 19:04 | 41.31161 | 39.71198 | 38048 ft | 369 kts | 264° |
| 2026-04-23 19:04 | 41.30817 | 39.64399 | 38040 ft | 370 kts | 264° |
| 2026-04-23 19:05 | 41.30469 | 39.57593 | 38045 ft | 370 kts | 264° |
| 2026-04-23 19:05 | 41.30116 | 39.50777 | 38039 ft | 370 kts | 264° |
| 2026-04-23 19:06 | 41.29758 | 39.44002 | 38051 ft | 369 kts | 264° |
| 2026-04-23 19:06 | 41.29399 | 39.37212 | 38044 ft | 369 kts | 264° |
| 2026-04-23 19:07 | 41.29035 | 39.30418 | 38030 ft | 369 kts | 264° |
| 2026-04-23 19:07 | 41.28667 | 39.23606 | 38058 ft | 369 kts | 264° |
| 2026-04-23 19:08 | 41.28295 | 39.16777 | 38038 ft | 370 kts | 263° |
| 2026-04-23 19:08 | 41.27917 | 39.09951 | 38031 ft | 369 kts | 263° |
| 2026-04-23 19:09 | 41.27538 | 39.03144 | 38038 ft | 371 kts | 263° |
| 2026-04-23 19:09 | 41.27153 | 38.96351 | 38018 ft | 371 kts | 263° |
| 2026-04-23 19:10 | 41.26757 | 38.89515 | 38012 ft | 371 kts | 264° |
| 2026-04-23 19:10 | 41.26364 | 38.82680 | 38021 ft | 372 kts | 264° |
| 2026-04-23 19:11 | 41.25966 | 38.75837 | 38023 ft | 372 kts | 263° |
| 2026-04-23 19:11 | 41.25562 | 38.68993 | 38030 ft | 372 kts | 264° |
| 2026-04-23 19:12 | 41.25154 | 38.62147 | 38014 ft | 372 kts | 263° |
| 2026-04-23 19:12 | 41.24744 | 38.55346 | 38025 ft | 372 kts | 263° |
| 2026-04-23 19:13 | 41.24328 | 38.48518 | 38017 ft | 373 kts | 264° |
| 2026-04-23 19:13 | 41.23909 | 38.41660 | 38030 ft | 373 kts | 263° |
| 2026-04-23 19:14 | 41.23481 | 38.34803 | 38030 ft | 374 kts | 263° |
| 2026-04-23 19:14 | 41.23052 | 38.27928 | 38022 ft | 373 kts | 263° |
| 2026-04-23 19:15 | 41.22622 | 38.21101 | 38005 ft | 374 kts | 263° |
| 2026-04-23 19:15 | 41.22183 | 38.14212 | 38024 ft | 375 kts | 263° |
| 2026-04-23 19:16 | 41.21743 | 38.07352 | 38017 ft | 374 kts | 263° |
| 2026-04-23 19:16 | 41.21296 | 38.00475 | 38025 ft | 375 kts | 263° |
| 2026-04-23 19:17 | 41.20614 | 37.90145 | 38030 ft | 375 kts | 263° |
| 2026-04-23 19:17 | 41.20154 | 37.83264 | 38030 ft | 376 kts | 263° |
| 2026-04-23 19:18 | 41.19691 | 37.76389 | 38028 ft | 376 kts | 263° |
| 2026-04-23 19:18 | 41.19221 | 37.69506 | 38033 ft | 376 kts | 263° |
| 2026-04-23 19:19 | 41.18893 | 37.59100 | 38021 ft | 379 kts | 270° |
| 2026-04-23 19:20 | 41.19544 | 37.48675 | 38017 ft | 380 kts | 273° |
| 2026-04-23 19:20 | 41.20059 | 37.41721 | 38054 ft | 379 kts | 273° |
| 2026-04-23 19:21 | 41.20821 | 37.31311 | 38021 ft | 378 kts | 272° |
| 2026-04-23 19:22 | 41.21322 | 37.24401 | 38030 ft | 379 kts | 272° |
| 2026-04-23 19:22 | 41.22126 | 37.14021 | 38021 ft | 378 kts | 273° |
| 2026-04-23 19:23 | 41.22668 | 37.07084 | 38032 ft | 378 kts | 273° |
| 2026-04-23 19:24 | 41.23468 | 36.96647 | 38022 ft | 379 kts | 273° |
| 2026-04-23 19:24 | 41.24258 | 36.86236 | 38028 ft | 380 kts | 273° |
| 2026-04-23 19:25 | 41.25289 | 36.72320 | 38019 ft | 379 kts | 273° |
| 2026-04-23 19:26 | 41.25851 | 36.61895 | 38026 ft | 378 kts | 268° |
| 2026-04-23 19:27 | 41.23700 | 36.44778 | 38016 ft | 377 kts | 252° |
| 2026-04-23 19:28 | 41.20117 | 36.31694 | 38022 ft | 377 kts | 250° |
| 2026-04-23 19:29 | 41.17410 | 36.21908 | 38008 ft | 376 kts | 250° |
| 2026-04-23 19:30 | 41.14693 | 36.12181 | 37996 ft | 377 kts | 251° |
| 2026-04-23 19:31 | 41.11946 | 36.02384 | 37986 ft | 377 kts | 251° |
| 2026-04-23 19:31 | 41.10120 | 35.95892 | 37976 ft | 377 kts | 250° |
| 2026-04-23 19:32 | 41.08265 | 35.89395 | 37959 ft | 378 kts | 250° |
| 2026-04-23 19:32 | 41.07172 | 35.86269 | 37949 ft | 379 kts | 239° |
| 2026-04-23 19:32 | 41.05479 | 35.83545 | 37969 ft | 384 kts | 226° |
| 2026-04-23 19:32 | 41.03236 | 35.81466 | 37983 ft | 394 kts | 212° |
| 2026-04-23 19:33 | 41.00658 | 35.80236 | 37983 ft | 404 kts | 198° |
| 2026-04-23 19:33 | 40.97794 | 35.79902 | 37983 ft | 416 kts | 184° |
| 2026-04-23 19:33 | 40.91997 | 35.80995 | 38000 ft | 426 kts | 177° |
| 2026-04-23 19:34 | 40.86173 | 35.82458 | 37998 ft | 427 kts | 176° |
| 2026-04-23 19:35 | 40.77526 | 35.84681 | 38007 ft | 417 kts | 176° |
| 2026-04-23 19:35 | 40.71844 | 35.86166 | 37706 ft | 416 kts | 176° |
| 2026-04-23 19:35 | 40.69011 | 35.86918 | 37430 ft | 415 kts | 176° |
| 2026-04-23 19:36 | 40.66191 | 35.87680 | 37162 ft | 414 kts | 176° |
| 2026-04-23 19:36 | 40.63370 | 35.88454 | 36881 ft | 409 kts | 176° |
| 2026-04-23 19:36 | 40.60632 | 35.89227 | 36598 ft | 404 kts | 176° |
| 2026-04-23 19:36 | 40.57877 | 35.90030 | 36313 ft | 404 kts | 176° |
| 2026-04-23 19:37 | 40.55132 | 35.90841 | 36027 ft | 403 kts | 176° |
| 2026-04-23 19:37 | 40.52400 | 35.91660 | 35729 ft | 400 kts | 176° |
| 2026-04-23 19:37 | 40.49737 | 35.92474 | 35433 ft | 395 kts | 176° |
| 2026-04-23 19:37 | 40.47076 | 35.93310 | 35134 ft | 391 kts | 176° |
| 2026-04-23 19:38 | 40.44443 | 35.94152 | 34829 ft | 392 kts | 176° |
| 2026-04-23 19:38 | 40.41788 | 35.95010 | 34462 ft | 394 kts | 176° |
| 2026-04-23 19:38 | 40.39122 | 35.95871 | 34108 ft | 393 kts | 176° |
| 2026-04-23 19:38 | 40.36472 | 35.96725 | 33741 ft | 393 kts | 176° |
| 2026-04-23 19:39 | 40.33822 | 35.97570 | 33367 ft | 393 kts | 176° |
| 2026-04-23 19:39 | 40.31166 | 35.98408 | 33000 ft | 394 kts | 176° |
| 2026-04-23 19:39 | 40.28507 | 35.99243 | 32637 ft | 394 kts | 176° |
| 2026-04-23 19:39 | 40.25816 | 36.00088 | 32266 ft | 395 kts | 176° |
| 2026-04-23 19:40 | 40.23161 | 36.00913 | 31904 ft | 396 kts | 176° |
| 2026-04-23 19:40 | 40.20486 | 36.01742 | 31547 ft | 395 kts | 176° |
| 2026-04-23 19:40 | 40.17819 | 36.02560 | 31187 ft | 395 kts | 176° |
| 2026-04-23 19:40 | 40.15114 | 36.03384 | 30818 ft | 395 kts | 176° |
| 2026-04-23 19:41 | 40.12402 | 36.04171 | 30438 ft | 406 kts | 180° |
| 2026-04-23 19:41 | 40.09606 | 36.04275 | 30053 ft | 403 kts | 195° |
| 2026-04-23 19:41 | 40.06934 | 36.03350 | 29974 ft | 392 kts | 210° |
| 2026-04-23 19:41 | 40.04647 | 36.01536 | 29963 ft | 384 kts | 225° |
| 2026-04-23 19:42 | 40.02879 | 35.98960 | 29960 ft | 378 kts | 239° |
| 2026-04-23 19:42 | 40.01795 | 35.95867 | 29959 ft | 376 kts | 254° |
| 2026-04-23 19:42 | 40.01402 | 35.92491 | 29964 ft | 379 kts | 264° |
| 2026-04-23 19:43 | 40.01231 | 35.85656 | 29959 ft | 380 kts | 266° |
| 2026-04-23 19:43 | 40.01138 | 35.78793 | 29956 ft | 381 kts | 267° |
| 2026-04-23 19:44 | 40.01040 | 35.71882 | 29950 ft | 381 kts | 266° |
| 2026-04-23 19:44 | 40.00994 | 35.68428 | 29816 ft | 377 kts | 266° |
| 2026-04-23 19:44 | 40.00952 | 35.65038 | 29139 ft | 377 kts | 266° |
| 2026-04-23 19:44 | 40.00910 | 35.61618 | 28163 ft | 381 kts | 266° |
| 2026-04-23 19:45 | 40.00880 | 35.58240 | 27738 ft | 378 kts | 266° |
| 2026-04-23 19:45 | 40.00854 | 35.54812 | 27324 ft | 378 kts | 267° |
| 2026-04-23 19:45 | 40.00831 | 35.51378 | 26912 ft | 377 kts | 266° |
| 2026-04-23 19:45 | 40.00816 | 35.48024 | 26507 ft | 374 kts | 267° |
| 2026-04-23 19:46 | 40.00802 | 35.44606 | 26094 ft | 372 kts | 267° |
| 2026-04-23 19:46 | 40.00787 | 35.41292 | 25686 ft | 369 kts | 267° |
| 2026-04-23 19:46 | 40.00772 | 35.37946 | 25277 ft | 367 kts | 266° |
| 2026-04-23 19:46 | 40.00767 | 35.34622 | 24978 ft | 366 kts | 267° |
| 2026-04-23 19:47 | 40.00763 | 35.31302 | 24955 ft | 366 kts | 266° |
| 2026-04-23 19:47 | 40.00751 | 35.28019 | 24949 ft | 367 kts | 266° |
| 2026-04-23 19:47 | 40.00749 | 35.24678 | 24943 ft | 367 kts | 266° |
| 2026-04-23 19:47 | 40.00746 | 35.21349 | 24940 ft | 367 kts | 266° |
| 2026-04-23 19:48 | 40.00738 | 35.18052 | 24942 ft | 366 kts | 266° |
| 2026-04-23 19:48 | 40.00734 | 35.14762 | 24943 ft | 366 kts | 266° |
| 2026-04-23 19:48 | 40.00726 | 35.11438 | 24941 ft | 367 kts | 266° |
| 2026-04-23 19:48 | 40.00720 | 35.08131 | 24944 ft | 368 kts | 266° |
| 2026-04-23 19:49 | 40.00718 | 35.04789 | 24949 ft | 368 kts | 266° |
| 2026-04-23 19:49 | 40.00722 | 35.01457 | 24944 ft | 367 kts | 266° |
| 2026-04-23 19:49 | 40.00720 | 34.98158 | 24948 ft | 368 kts | 266° |
| 2026-04-23 19:49 | 40.00712 | 34.94783 | 24950 ft | 369 kts | 266° |
| 2026-04-23 19:50 | 40.00704 | 34.91495 | 24949 ft | 368 kts | 266° |
| 2026-04-23 19:50 | 40.00695 | 34.88159 | 24763 ft | 367 kts | 266° |
| 2026-04-23 19:50 | 40.00692 | 34.84836 | 24441 ft | 364 kts | 266° |
| 2026-04-23 19:50 | 40.00693 | 34.81573 | 24124 ft | 363 kts | 266° |
| 2026-04-23 19:51 | 40.00702 | 34.78318 | 23803 ft | 360 kts | 266° |
| 2026-04-23 19:51 | 40.00710 | 34.75061 | 23491 ft | 359 kts | 266° |
| 2026-04-23 19:51 | 40.00724 | 34.71794 | 23174 ft | 358 kts | 266° |
| 2026-04-23 19:51 | 40.00737 | 34.68573 | 22862 ft | 356 kts | 266° |
| 2026-04-23 19:52 | 40.00755 | 34.65371 | 22552 ft | 356 kts | 266° |
| 2026-04-23 19:52 | 40.00773 | 34.62181 | 22251 ft | 354 kts | 266° |
| 2026-04-23 19:52 | 40.00790 | 34.58967 | 21944 ft | 352 kts | 266° |
| 2026-04-23 19:52 | 40.00809 | 34.55779 | 21639 ft | 350 kts | 266° |
| 2026-04-23 19:53 | 40.00835 | 34.52619 | 21345 ft | 348 kts | 266° |
| 2026-04-23 19:53 | 40.00863 | 34.49471 | 21037 ft | 347 kts | 267° |
| 2026-04-23 19:53 | 40.00882 | 34.46352 | 20742 ft | 346 kts | 266° |
| 2026-04-23 19:53 | 40.00899 | 34.43234 | 20440 ft | 344 kts | 267° |
| 2026-04-23 19:54 | 40.00909 | 34.40096 | 20144 ft | 344 kts | 267° |
| 2026-04-23 19:54 | 40.00913 | 34.37038 | 19971 ft | 342 kts | 267° |
| 2026-04-23 19:54 | 40.00919 | 34.33917 | 19971 ft | 342 kts | 266° |
| 2026-04-23 19:54 | 40.00921 | 34.30837 | 19963 ft | 342 kts | 266° |
| 2026-04-23 19:55 | 40.00923 | 34.27701 | 19959 ft | 342 kts | 266° |
| 2026-04-23 19:55 | 40.00925 | 34.24610 | 19960 ft | 342 kts | 266° |
| 2026-04-23 19:55 | 40.00927 | 34.21504 | 19956 ft | 342 kts | 266° |
| 2026-04-23 19:55 | 40.00925 | 34.18414 | 19696 ft | 342 kts | 266° |
| 2026-04-23 19:56 | 40.00921 | 34.15320 | 19397 ft | 341 kts | 266° |
| 2026-04-23 19:56 | 40.00921 | 34.12262 | 19110 ft | 339 kts | 266° |
| 2026-04-23 19:56 | 40.00916 | 34.09208 | 18819 ft | 337 kts | 266° |
| 2026-04-23 19:56 | 40.00907 | 34.06153 | 18510 ft | 336 kts | 266° |
| 2026-04-23 19:57 | 40.00897 | 34.03091 | 18213 ft | 336 kts | 266° |
| 2026-04-23 19:57 | 40.00878 | 34.00091 | 17995 ft | 335 kts | 266° |
| 2026-04-23 19:57 | 40.00849 | 33.97013 | 17967 ft | 336 kts | 266° |
| 2026-04-23 19:57 | 40.00923 | 33.93967 | 17944 ft | 339 kts | 276° |
| 2026-04-23 19:58 | 40.01718 | 33.91077 | 17951 ft | 348 kts | 292° |
| 2026-04-23 19:58 | 40.02959 | 33.88289 | 17955 ft | 350 kts | 295° |
| 2026-04-23 19:58 | 40.04258 | 33.85593 | 17956 ft | 351 kts | 296° |
| 2026-04-23 19:58 | 40.05559 | 33.82932 | 17956 ft | 350 kts | 296° |
| 2026-04-23 19:59 | 40.06870 | 33.80259 | 17960 ft | 350 kts | 296° |
| 2026-04-23 19:59 | 40.08183 | 33.77582 | 17960 ft | 350 kts | 296° |
| 2026-04-23 19:59 | 40.09501 | 33.74910 | 17958 ft | 349 kts | 296° |
| 2026-04-23 19:59 | 40.10805 | 33.72269 | 17966 ft | 349 kts | 296° |
| 2026-04-23 20:00 | 40.12126 | 33.69601 | 17913 ft | 346 kts | 296° |
| 2026-04-23 20:00 | 40.13421 | 33.66980 | 17481 ft | 342 kts | 297° |
| 2026-04-23 20:00 | 40.14687 | 33.64385 | 16880 ft | 342 kts | 297° |
| 2026-04-23 20:00 | 40.15940 | 33.61775 | 16319 ft | 340 kts | 297° |
| 2026-04-23 20:01 | 40.17162 | 33.59174 | 15815 ft | 336 kts | 297° |
| 2026-04-23 20:01 | 40.18367 | 33.56546 | 15272 ft | 333 kts | 297° |
| 2026-04-23 20:01 | 40.19532 | 33.53942 | 14732 ft | 331 kts | 297° |
| 2026-04-23 20:01 | 40.20658 | 33.51371 | 14224 ft | 328 kts | 297° |
| 2026-04-23 20:02 | 40.21765 | 33.48785 | 13698 ft | 325 kts | 297° |
| 2026-04-23 20:02 | 40.22847 | 33.46207 | 13156 ft | 324 kts | 297° |
| 2026-04-23 20:02 | 40.23918 | 33.43626 | 12598 ft | 323 kts | 297° |
| 2026-04-23 20:02 | 40.24968 | 33.41067 | 12030 ft | 322 kts | 297° |
| 2026-04-23 20:03 | 40.26009 | 33.38495 | 11454 ft | 322 kts | 297° |
| 2026-04-23 20:03 | 40.27056 | 33.35906 | 10886 ft | 321 kts | 300° |
| 2026-04-23 20:03 | 40.28495 | 33.33696 | 10333 ft | 322 kts | 322° |
| 2026-04-23 20:03 | 40.30483 | 33.32477 | 10118 ft | 315 kts | 345° |
| 2026-04-23 20:04 | 40.32655 | 33.32425 | 9907 ft | 309 kts | 9° |
| 2026-04-23 20:04 | 40.34593 | 33.33502 | 9732 ft | 303 kts | 30° |
| 2026-04-23 20:04 | 40.36267 | 33.35097 | 9557 ft | 294 kts | 35° |
| 2026-04-23 20:04 | 40.37861 | 33.36721 | 9316 ft | 286 kts | 30° |
| 2026-04-23 20:05 | 40.39646 | 33.37685 | 8930 ft | 278 kts | 5° |
| 2026-04-23 20:05 | 40.41517 | 33.37474 | 8565 ft | 270 kts | 338° |
| 2026-04-23 20:05 | 40.43080 | 33.36149 | 8169 ft | 265 kts | 313° |
| 2026-04-23 20:05 | 40.44256 | 33.34332 | 7982 ft | 266 kts | 306° |
| 2026-04-23 20:06 | 40.45068 | 33.32157 | 7966 ft | 267 kts | 281° |
| 2026-04-23 20:06 | 40.45015 | 33.29732 | 7970 ft | 270 kts | 256° |
| 2026-04-23 20:06 | 40.44355 | 33.27419 | 7980 ft | 272 kts | 248° |
| 2026-04-23 20:06 | 40.43404 | 33.25283 | 7958 ft | 271 kts | 228° |
| 2026-04-23 20:07 | 40.41916 | 33.23861 | 7957 ft | 258 kts | 210° |
| 2026-04-23 20:07 | 40.40322 | 33.22831 | 7789 ft | 251 kts | 207° |
| 2026-04-23 20:07 | 40.38772 | 33.21905 | 7625 ft | 243 kts | 206° |
| 2026-04-23 20:07 | 40.37248 | 33.21005 | 7462 ft | 235 kts | 206° |
| 2026-04-23 20:08 | 40.35792 | 33.20146 | 7304 ft | 227 kts | 206° |
| 2026-04-23 20:08 | 40.34354 | 33.19298 | 7072 ft | 223 kts | 204° |
| 2026-04-23 20:08 | 40.32938 | 33.18519 | 6783 ft | 222 kts | 207° |
| 2026-04-23 20:08 | 40.31587 | 33.17546 | 6593 ft | 219 kts | 214° |
| 2026-04-23 20:09 | 40.30341 | 33.16404 | 6586 ft | 219 kts | 218° |
| 2026-04-23 20:09 | 40.29082 | 33.15167 | 6585 ft | 232 kts | 219° |
| 2026-04-23 20:09 | 40.27778 | 33.13894 | 6415 ft | 234 kts | 218° |
| 2026-04-23 20:09 | 40.26461 | 33.12633 | 6094 ft | 232 kts | 217° |
| 2026-04-23 20:10 | 40.25212 | 33.11451 | 5774 ft | 214 kts | 217° |
| 2026-04-23 20:10 | 40.24022 | 33.10323 | 5505 ft | 210 kts | 217° |
| 2026-04-23 20:10 | 40.22878 | 33.09239 | 5313 ft | 196 kts | 217° |
| 2026-04-23 20:10 | 40.21817 | 33.08232 | 5012 ft | 181 kts | 217° |
| 2026-04-23 20:11 | 40.20811 | 33.07274 | 4781 ft | 175 kts | 217° |
| 2026-04-23 20:11 | 40.19867 | 33.06376 | 4534 ft | 160 kts | 217° |
| 2026-04-23 20:11 | 40.19003 | 33.05553 | 4295 ft | 146 kts | 217° |
| 2026-04-23 20:11 | 40.18200 | 33.04789 | 4108 ft | 142 kts | 217° |
| 2026-04-23 20:12 | 40.17395 | 33.04028 | 3935 ft | 141 kts | 217° |
| 2026-04-23 20:12 | 40.16608 | 33.03278 | 3763 ft | 141 kts | 217° |
| 2026-04-23 20:12 | 40.15815 | 33.02524 | 3555 ft | 140 kts | 217° |
| 2026-04-23 20:12 | 40.15028 | 33.01780 | 3362 ft | 139 kts | 218° |
| 2026-04-23 20:13 | 40.14250 | 33.01038 | 3197 ft | 139 kts | 217° |
| 2026-04-23 20:13 | 40.13506 | 33.00321 | 3135 ft | 115 kts | 216° |
| 2026-04-23 20:13 | 40.13009 | 32.99844 | 3131 ft | 67 kts | 218° |
| 2026-04-23 20:13 | 40.12759 | 32.99610 | 3127 ft | 31 kts | 217° |
| 2026-04-23 20:14 | 40.12593 | 32.99447 | 3126 ft | 29 kts | 216° |
| 2026-04-23 20:14 | 40.12436 | 32.99304 | 3124 ft | 23 kts | 212° |
| 2026-04-23 20:14 | 40.12295 | 32.99222 | 3124 ft | 19 kts | 194° |
| 2026-04-23 20:14 | 40.12172 | 32.99198 | 3126 ft | 14 kts | 186° |
| 2026-04-23 20:15 | 40.12130 | 32.99193 | 3126 ft | 0 kts | 184° |
| 2026-04-23 20:16 | 40.12130 | 32.99192 | 3126 ft | 0 kts | 184° |
| 2026-04-23 20:16 | 40.12120 | 32.99192 | 3126 ft | 5 kts | 185° |
| 2026-04-23 20:16 | 40.12076 | 32.99186 | 3126 ft | 3 kts | 186° |
| 2026-04-23 20:17 | 40.12053 | 32.99183 | 3127 ft | 3 kts | 186° |
| 2026-04-23 20:17 | 40.12023 | 32.99179 | 3127 ft | 6 kts | 187° |
| 2026-04-23 20:17 | 40.11970 | 32.99158 | 3127 ft | 8 kts | 212° |
| 2026-04-23 20:17 | 40.11914 | 32.99106 | 3126 ft | 10 kts | 216° |
| 2026-04-23 20:18 | 40.11848 | 32.99044 | 3126 ft | 12 kts | 216° |
| 2026-04-23 20:18 | 40.11776 | 32.98976 | 3125 ft | 13 kts | 215° |
| 2026-04-23 20:18 | 40.11703 | 32.98904 | 3123 ft | 12 kts | 217° |
| 2026-04-23 20:18 | 40.11653 | 32.98896 | 3123 ft | 7 kts | 135° |
| 2026-04-23 20:19 | 40.11623 | 32.98947 | 3124 ft | 6 kts | 128° |
| 2026-04-23 20:19 | 40.11592 | 32.98987 | 3125 ft | 6 kts | 139° |
| 2026-04-23 20:19 | 40.11563 | 32.99019 | 3125 ft | 4 kts | 138° |
| 2026-04-23 20:19 | 40.11552 | 32.99031 | 3125 ft | 0 kts | 139° |